Time;durP1;ratioP1;P1;durP2;ratioP2;P2;SDS_P1;SDS_P2;PMS_P1;PMS_P2;Temp;Humidity;BMP_temperature;BMP_pressure;BME280_temperature;BME280_humidity;BME280_pressure;Samples;Min_cycle;Max_cycle;Signal;HPM_P1;HPM_P2
2022/06/12 00:00:57;;;;;;;0.40;0.20;;;;;;;20.44;100.00;94815.00;5092330;28;20835;-68
2022/06/12 00:03:28;;;;;;;0.40;0.30;;;;;;;19.99;100.00;94817.91;5092726;28;20490;-68
2022/06/12 00:05:59;;;;;;;0.70;0.37;;;;;;;19.52;100.00;94806.91;5092821;28;20413;-69
2022/06/12 00:08:29;;;;;;;0.40;0.30;;;;;;;19.21;100.00;94812.03;5092127;28;20468;-69
2022/06/12 00:11:00;;;;;;;8.30;0.33;;;;;;;19.22;100.00;94736.50;5092433;28;20532;-69
2022/06/12 00:13:35;;;;;;;0.80;0.40;;;;;;;19.75;100.00;94813.38;5092089;28;20482;-68
2022/06/12 00:16:04;;;;;;;0.40;0.30;;;;;;;18.87;100.00;94760.31;5091752;28;20468;-68
2022/06/12 00:18:33;;;;;;;0.60;0.40;;;;;;;18.19;100.00;94673.28;5092542;28;20474;-68
2022/06/12 00:21:12;;;;;;;0.60;0.50;;;;;;;18.62;100.00;94764.06;5091655;28;20956;-69
2022/06/12 00:23:45;;;;;;;0.40;0.30;;;;;;;18.97;100.00;94807.44;5092137;28;20438;-67
2022/06/12 00:26:17;;;;;;;0.50;0.37;;;;;;;19.13;100.00;94819.06;5094897;28;20449;-67
2022/06/12 00:28:47;;;;;;;0.40;0.30;;;;;;;18.58;100.00;94719.44;5095210;28;20459;-68
2022/06/12 00:31:25;;;;;;;0.50;0.30;;;;;;;18.94;100.00;94825.00;5092487;28;20420;-67
2022/06/12 00:33:54;;;;;;;0.57;0.33;;;;;;;19.27;100.00;94826.81;5091911;28;20515;-67
2022/06/12 00:36:23;;;;;;;0.50;0.40;;;;;;;18.81;100.00;94761.66;5091746;28;20863;-67
2022/06/12 00:39:00;;;;;;;2.30;1.70;;;;;;;18.89;100.00;94827.91;5091731;28;20439;-66
2022/06/12 00:41:34;;;;;;;13.33;0.40;;;;;;;19.31;100.00;94827.72;5091866;28;20471;-66
2022/06/12 00:44:16;;;;;;;0.40;0.30;;;;;;;18.67;100.00;94677.19;5091685;28;20502;-66
2022/06/12 00:46:50;;;;;;;0.40;0.20;;;;;;;19.83;100.00;94828.63;5091997;28;20428;-65
2022/06/12 00:49:36;;;;;;;0.50;0.30;;;;;;;19.78;100.00;94823.47;5091302;28;20906;-67
2022/06/12 00:52:14;;;;;;;0.40;0.30;;;;;;;18.52;100.00;94629.56;5091885;28;20988;-66
2022/06/12 00:54:52;;;;;;;0.80;0.40;;;;;;;19.22;100.00;94786.75;5091263;28;20950;-66
2022/06/12 00:57:22;;;;;;;0.40;0.30;;;;;;;19.44;100.00;94815.88;5091749;28;20428;-66
2022/06/12 01:00:04;;;;;;;0.40;0.30;;;;;;;19.54;100.00;94785.84;5091634;28;21044;-66
2022/06/12 01:02:42;;;;;;;0.40;0.30;;;;;;;19.77;100.00;94832.66;5086802;28;20464;-65
2022/06/12 01:08:10;;;;;;;0.50;0.50;;;;;;;19.10;100.00;94644.38;5091947;28;20509;-67
2022/06/12 01:10:46;;;;;;;0.40;0.30;;;;;;;19.17;100.00;94655.34;5091463;28;21123;-67
2022/06/12 01:13:19;;;;;;;0.40;0.30;;;;;;;20.30;100.00;94803.84;5091404;28;20522;-66
2022/06/12 01:15:54;;;;;;;0.40;0.30;;;;;;;19.02;100.00;94593.13;5091256;28;20953;-66
2022/06/12 01:18:28;;;;;;;0.40;0.20;;;;;;;18.12;100.00;94476.50;5090438;28;20519;-66
2022/06/12 01:21:06;;;;;;;0.40;0.30;;;;;;;19.33;100.00;94667.72;5091623;28;20464;-66
2022/06/12 01:24:04;;;;;;;0.40;0.20;;;;;;;20.63;100.00;94807.06;5091435;28;20506;-66
2022/06/12 01:27:00;;;;;;;0.40;0.20;;;;;;;20.07;100.00;94702.09;5077797;28;20436;-66
2022/06/12 01:29:36;;;;;;;0.40;0.20;;;;;;;20.15;100.00;94730.78;5087167;28;20502;-66
2022/06/12 01:32:13;;;;;;;0.40;0.30;;;;;;;20.41;100.00;94802.22;5090999;28;20878;-66
2022/06/12 01:34:51;;;;;;;0.40;0.30;;;;;;;20.06;100.00;94778.56;5091307;28;20428;-67
2022/06/12 01:37:31;;;;;;;0.40;0.30;;;;;;;20.06;100.00;94780.47;5091217;28;20875;-66
2022/06/12 01:40:09;;;;;;;0.40;0.20;;;;;;;20.23;100.00;94818.69;5091276;28;20511;-66
2022/06/12 01:42:47;;;;;;;0.40;0.20;;;;;;;20.26;100.00;94783.00;5091474;28;20467;-67
2022/06/12 01:45:29;;;;;;;0.50;0.37;;;;;;;18.97;100.00;94604.09;5091295;28;20916;-66
2022/06/12 01:48:10;;;;;;;0.40;0.20;;;;;;;19.26;100.00;94648.69;5094723;28;20450;-65
2022/06/12 01:50:45;;;;;;;0.40;0.20;;;;;;;20.24;100.00;94809.47;5094936;28;20446;-66
2022/06/12 01:53:23;;;;;;;0.40;0.27;;;;;;;20.26;100.00;94780.28;5094734;28;20432;-66
2022/06/12 01:55:56;;;;;;;0.40;0.20;;;;;;;19.11;100.00;94619.06;5094920;28;20460;-66
2022/06/12 01:58:31;;;;;;;0.40;0.20;;;;;;;20.39;100.00;94802.56;5095232;28;20428;-66
2022/06/12 02:01:08;;;;;;;0.50;0.30;;;;;;;20.45;100.00;94795.81;5094964;28;20499;-66
2022/06/12 02:03:46;;;;;;;0.47;0.27;;;;;;;20.08;100.00;94740.56;5094225;28;20446;-66
2022/06/12 02:06:22;;;;;;;0.40;0.30;;;;;;;20.27;100.00;94799.94;5094355;28;20858;-66
2022/06/12 02:08:58;;;;;;;0.40;0.30;;;;;;;20.36;100.00;94797.88;5095089;28;20428;-66
2022/06/12 02:14:28;;;;;;;0.40;0.33;;;;;;;20.36;100.00;94794.41;5060457;28;20494;-66
2022/06/12 02:17:01;;;;;;;0.50;0.30;;;;;;;19.84;100.00;94807.88;5093911;28;20497;-67
2022/06/12 02:19:35;;;;;;;0.40;0.20;;;;;;;20.02;100.00;94804.59;5094560;28;20428;-68
2022/06/12 02:22:08;;;;;;;0.40;0.20;;;;;;;19.95;100.00;94777.47;5094359;28;20433;-68
2022/06/12 02:24:41;;;;;;;0.40;0.20;;;;;;;20.14;100.00;94807.22;5094096;28;20424;-68
2022/06/12 02:27:13;;;;;;;0.40;0.20;;;;;;;19.93;100.00;94765.50;5094637;28;20856;-68
2022/06/12 02:29:46;;;;;;;0.50;0.30;;;;;;;20.19;100.00;94817.75;5094705;28;20515;-69
2022/06/12 02:32:20;;;;;;;0.40;0.30;;;;;;;19.61;100.00;94724.22;5093857;28;20515;-69
2022/06/12 02:34:53;;;;;;;0.50;0.40;;;;;;;18.62;100.00;94581.56;5094465;28;20806;-68
2022/06/12 02:37:27;;;;;;;0.40;0.20;;;;;;;19.89;100.00;94805.72;5095014;28;20459;-68
2022/06/12 02:40:02;;;;;;;0.50;0.50;;;;;;;19.32;100.00;94797.84;5097067;28;20455;-68
2022/06/12 02:42:37;;;;;;;0.50;0.40;;;;;;;19.22;100.00;94792.91;5094810;28;20514;-68
2022/06/12 02:45:10;;;;;;;0.40;0.30;;;;;;;19.24;100.00;94795.25;5094005;28;20420;-68
2022/06/12 02:47:42;;;;;;;0.57;0.57;;;;;;;19.45;100.00;94795.94;5094159;28;20486;-68
2022/06/12 02:50:14;;;;;;;0.50;0.30;;;;;;;19.11;100.00;94762.22;5093797;28;20479;-67
2022/06/12 02:52:46;;;;;;;0.40;0.20;;;;;;;19.72;100.00;94803.31;5094236;28;20463;-67
2022/06/12 02:55:25;;;;;;;0.40;0.30;;;;;;;19.97;100.00;94801.34;5093864;28;20460;-67
2022/06/12 02:58:07;;;;;;;0.40;0.20;;;;;;;20.10;100.00;94803.66;5093003;28;20428;-64
2022/06/12 03:00:54;;;;;;;0.40;0.27;;;;;;;19.19;100.00;94642.34;5093627;28;20566;-64
2022/06/12 03:03:39;;;;;;;0.40;0.30;;;;;;;20.26;100.00;94804.53;5093747;28;20490;-64
2022/06/12 03:06:10;;;;;;;0.40;0.30;;;;;;;20.29;100.00;94818.44;5093408;28;20482;-65
2022/06/12 03:08:46;;;;;;;0.40;0.20;;;;;;;20.22;100.00;94814.38;5091956;28;20471;-65
2022/06/12 03:11:24;;;;;;;0.60;0.60;;;;;;;19.76;100.00;94809.56;5093306;28;20487;-64
2022/06/12 03:13:59;;;;;;;0.40;0.27;;;;;;;19.39;100.00;94810.72;5075843;28;20421;-63
2022/06/12 03:16:30;;;;;;;0.50;0.30;;;;;;;19.70;100.00;94813.63;5093251;28;20439;-63
2022/06/12 03:19:09;;;;;;;0.53;0.30;;;;;;;19.84;100.00;94816.72;5092799;28;20467;-64
2022/06/12 03:21:44;;;;;;;0.53;0.53;;;;;;;19.76;100.00;94823.00;5093399;28;20499;-64
2022/06/12 03:24:36;;;;;;;0.40;0.27;;;;;;;18.44;100.00;94721.63;5093072;28;20492;-64
2022/06/12 03:27:25;;;;;;;0.43;0.30;;;;;;;18.99;100.00;94808.69;5094091;28;20911;-63
2022/06/12 03:30:04;;;;;;;0.40;0.30;;;;;;;18.81;100.00;94807.28;5094477;28;20433;-64
2022/06/12 03:32:47;;;;;;;0.73;0.70;;;;;;;18.85;100.00;94757.16;5093461;28;20472;-64
2022/06/12 03:35:32;;;;;;;0.60;0.50;;;;;;;19.30;100.00;94812.72;5094792;28;21006;-64
2022/06/12 03:38:04;;;;;;;0.50;0.40;;;;;;;19.29;100.00;94817.31;5096738;28;20508;-64
2022/06/12 03:40:41;;;;;;;0.70;0.50;;;;;;;18.61;100.00;94703.47;5096600;28;20448;-64
2022/06/12 03:43:17;;;;;;;0.40;0.30;;;;;;;19.52;100.00;94823.84;5095246;28;20459;-64
2022/06/12 03:45:50;;;;;;;0.40;0.30;;;;;;;19.22;100.00;94813.63;5095932;28;20455;-63
2022/06/12 03:48:27;;;;;;;0.43;0.30;;;;;;;19.02;100.00;94745.44;5094716;28;20928;-63
2022/06/12 03:57:56;;;;;;;0.40;0.30;;;;;;;19.67;100.00;94826.94;5110041;28;20506;-64
2022/06/12 04:00:38;;;;;;;0.40;0.30;;;;;;;18.80;100.00;94710.97;5108990;28;20869;-65
2022/06/12 04:03:19;;;;;;;3.40;0.80;;;;;;;19.20;100.00;94826.59;5109830;28;20458;-64
2022/06/12 04:05:59;;;;;;;0.40;0.30;;;;;;;19.08;100.00;94830.03;5109844;28;20431;-64
2022/06/12 04:08:35;;;;;;;0.40;0.30;;;;;;;19.14;100.00;94833.31;5109228;28;20788;-64
2022/06/12 04:11:18;;;;;;;0.57;0.33;;;;;;;19.01;100.00;94827.91;5109594;28;20424;-64
2022/06/12 04:13:49;;;;;;;0.60;0.53;;;;;;;18.65;100.00;94768.78;5108861;28;21041;-64
2022/06/12 04:16:31;;;;;;;0.83;0.47;;;;;;;19.18;100.00;94831.50;5109271;28;20495;-63
2022/06/12 04:19:02;;;;;;;0.40;0.30;;;;;;;19.07;100.00;94841.91;5108994;28;20432;-64
2022/06/12 04:21:36;;;;;;;0.97;0.97;;;;;;;19.25;100.00;94839.81;5109071;28;20480;-64
2022/06/12 04:24:13;;;;;;;0.50;0.40;;;;;;;18.86;100.00;94782.13;5108998;28;20428;-64
2022/06/12 04:26:53;;;;;;;0.50;0.37;;;;;;;19.24;100.00;94830.16;5109037;28;20451;-64
2022/06/12 04:29:29;;;;;;;0.60;0.40;;;;;;;19.47;100.00;94831.34;5109123;28;20873;-63
2022/06/12 04:32:02;;;;;;;0.50;0.50;;;;;;;19.53;100.00;94835.38;5109112;28;20423;-64
2022/06/12 04:34:33;;;;;;;1.17;1.17;;;;;;;19.50;100.00;94841.41;5108800;28;20448;-63
2022/06/12 04:37:10;;;;;;;0.60;0.43;;;;;;;18.94;100.00;94802.72;5108774;28;20976;-63
2022/06/12 04:39:38;;;;;;;0.80;0.50;;;;;;;19.10;100.00;94843.16;5108664;28;20435;-64
2022/06/12 04:42:09;;;;;;;0.50;0.37;;;;;;;19.23;100.00;94842.81;5108652;28;20475;-62
2022/06/12 04:44:38;;;;;;;0.77;0.77;;;;;;;19.03;100.00;94841.00;5108594;28;20467;-61
2022/06/12 04:47:08;;;;;;;0.40;0.30;;;;;;;19.19;100.00;94846.50;5108708;28;20507;-61
2022/06/12 04:49:37;;;;;;;0.80;0.80;;;;;;;19.41;100.00;94848.78;5108388;28;21023;-62
2022/06/12 04:52:09;;;;;;;0.50;0.30;;;;;;;20.03;100.00;94857.28;5109274;28;20532;-62
2022/06/12 04:54:39;;;;;;;0.40;0.30;;;;;;;20.29;100.00;94850.72;5110399;28;20456;-60
2022/06/12 04:57:11;;;;;;;0.50;0.40;;;;;;;20.21;100.00;94853.16;5111198;28;20436;-61
2022/06/12 04:59:40;;;;;;;0.40;0.33;;;;;;;19.96;100.00;94805.16;5109354;28;20845;-61
2022/06/12 05:02:09;;;;;;;0.40;0.30;;;;;;;20.02;100.00;94838.75;5108284;28;20766;-61
2022/06/12 05:04:38;;;;;;;0.47;0.30;;;;;;;19.54;100.00;94773.19;5097289;28;20428;-61
2022/06/12 05:07:07;;;;;;;0.97;0.30;;;;;;;20.10;100.00;94797.50;5094696;28;20463;-60
2022/06/12 05:09:39;;;;;;;0.40;0.30;;;;;;;20.62;100.00;94851.25;5094650;28;20428;-62
2022/06/12 05:12:12;;;;;;;0.90;0.60;;;;;;;20.52;100.00;94849.06;5094497;28;20481;-61
2022/06/12 05:14:41;;;;;;;0.50;0.40;;;;;;;20.03;100.00;94795.41;5094129;28;20432;-60
2022/06/12 05:17:18;;;;;;;1.87;0.97;;;;;;;20.41;100.00;94854.16;5094495;28;20431;-60
2022/06/12 05:19:47;;;;;;;0.50;0.40;;;;;;;20.66;100.00;94863.72;5094317;28;20482;-60
2022/06/12 05:22:16;;;;;;;0.50;0.30;;;;;;;20.56;100.00;94860.72;5094694;28;20846;-59
2022/06/12 05:24:45;;;;;;;0.50;0.40;;;;;;;20.74;100.00;94865.47;5094195;28;20475;-59
2022/06/12 05:27:19;;;;;;;0.90;0.87;;;;;;;21.05;100.00;94867.44;5094375;28;20452;-60
2022/06/12 05:29:49;;;;;;;0.40;0.30;;;;;;;21.16;100.00;94865.81;5094459;28;20515;-60
2022/06/12 05:32:21;;;;;;;0.50;0.40;;;;;;;20.74;100.00;94821.59;5094058;28;20471;-60
2022/06/12 05:34:50;;;;;;;0.60;0.30;;;;;;;20.31;100.00;94843.88;5094405;28;20440;-60
2022/06/12 05:37:19;;;;;;;0.60;0.57;;;;;;;20.54;100.00;94862.97;5094324;28;20512;-60
2022/06/12 05:39:47;;;;;;;0.50;0.30;;;;;;;20.48;100.00;94853.56;5094309;28;20509;-60
2022/06/12 05:42:17;;;;;;;0.60;0.60;;;;;;;20.83;100.00;94868.00;5093793;28;20503;-60
2022/06/12 05:44:46;;;;;;;0.87;0.87;;;;;;;20.76;100.00;94865.13;5093769;28;20420;-60
2022/06/12 05:47:14;;;;;;;0.40;0.30;;;;;;;20.41;100.00;94805.72;5093232;28;20985;-60
2022/06/12 05:49:43;;;;;;;0.83;0.83;;;;;;;20.57;100.00;94870.34;5093411;28;20897;-61
2022/06/12 05:52:13;;;;;;;1.90;0.60;;;;;;;19.74;100.00;94690.03;5096566;28;20476;-61
2022/06/12 05:54:43;;;;;;;0.40;0.30;;;;;;;21.25;100.00;94877.22;5097098;28;20483;-60
2022/06/12 05:57:14;;;;;;;0.40;0.40;;;;;;;20.59;100.00;94739.63;5096945;28;20481;-61
2022/06/12 05:59:45;;;;;;;0.40;0.30;;;;;;;20.98;100.00;94823.34;5095419;28;20489;-61
2022/06/12 06:02:14;;;;;;;0.40;0.30;;;;;;;21.47;100.00;94884.72;5095196;28;20435;-60
2022/06/12 06:04:45;;;;;;;0.50;0.50;;;;;;;21.51;100.00;94858.63;5095646;28;20444;-60
2022/06/12 06:07:13;;;;;;;0.40;0.30;;;;;;;21.15;100.00;94877.72;5094452;28;20479;-60
2022/06/12 06:09:43;;;;;;;0.50;0.40;;;;;;;20.93;100.00;94848.66;5094622;28;20437;-60
2022/06/12 06:12:12;;;;;;;1.00;1.00;;;;;;;20.99;100.00;94876.91;5095240;28;20556;-60
2022/06/12 06:14:41;;;;;;;0.40;0.27;;;;;;;20.86;100.00;94886.19;5094127;28;20472;-59
2022/06/12 06:17:12;;;;;;;0.40;0.40;;;;;;;20.79;100.00;94859.06;5094797;28;20432;-60
2022/06/12 06:19:41;;;;;;;0.50;0.30;;;;;;;20.64;100.00;94879.44;5096663;28;20434;-61
2022/06/12 06:22:10;;;;;;;0.40;0.30;;;;;;;20.70;100.00;94874.56;5096261;28;20428;-60
2022/06/12 06:24:38;;;;;;;0.40;0.30;;;;;;;20.55;100.00;94838.41;5095645;28;20505;-61
2022/06/12 06:27:07;;;;;;;0.70;0.30;;;;;;;21.17;100.00;94859.31;5096146;28;20460;-60
2022/06/12 06:29:36;;;;;;;0.57;0.43;;;;;;;21.41;100.00;94886.09;5096899;28;20467;-61
2022/06/12 06:32:07;;;;;;;0.40;0.30;;;;;;;21.53;100.00;94885.22;5093444;28;20485;-59
2022/06/12 06:34:41;;;;;;;0.40;0.20;;;;;;;21.52;100.00;94887.16;5094869;28;20605;-59
2022/06/12 06:37:14;;;;;;;0.40;0.30;;;;;;;21.66;100.00;94886.69;5096664;28;21005;-58
2022/06/12 06:39:43;;;;;;;0.40;0.30;;;;;;;21.18;100.00;94798.88;5094644;28;20441;-59
2022/06/12 06:42:13;;;;;;;0.50;0.30;;;;;;;21.61;100.00;94891.56;5095843;28;20920;-59
2022/06/12 06:47:43;;;;;;;0.60;0.60;;;;;;;21.44;100.00;94879.22;5052435;28;20527;-59
2022/06/12 06:50:20;;;;;;;0.40;0.20;;;;;;;21.77;100.00;94885.03;5049994;28;20422;-59
2022/06/12 06:52:49;;;;;;;0.40;0.30;;;;;;;21.76;100.00;94869.19;5072324;28;20999;-59
2022/06/12 06:55:21;;;;;;;0.90;0.77;;;;;;;21.74;100.00;94871.47;5092488;28;20552;-59
2022/06/12 06:57:51;;;;;;;0.40;0.30;;;;;;;21.87;100.00;94891.84;5093412;28;20420;-59
2022/06/12 07:00:24;;;;;;;0.40;0.30;;;;;;;21.95;100.00;94904.38;5097167;28;20453;-60
2022/06/12 07:02:53;;;;;;;0.40;0.30;;;;;;;21.66;100.00;94872.44;5096654;28;20425;-58
2022/06/12 07:05:25;;;;;;;15.47;0.40;;;;;;;21.76;100.00;94910.44;5094143;28;20805;-60
2022/06/12 07:07:54;;;;;;;0.40;0.30;;;;;;;21.84;100.00;94901.41;5097001;28;20438;-60
2022/06/12 07:10:25;;;;;;;0.40;0.20;;;;;;;22.30;100.00;94907.06;5095602;28;20939;-60
2022/06/12 07:12:55;;;;;;;0.40;0.20;;;;;;;22.08;100.00;94897.75;5093513;28;20447;-60
2022/06/12 07:15:25;;;;;;;0.60;0.40;;;;;;;22.13;100.00;94900.97;5095192;28;20471;-60
2022/06/12 07:17:55;;;;;;;0.50;0.30;;;;;;;22.04;100.00;94894.16;5094193;28;20439;-60
2022/06/12 07:20:29;;;;;;;0.40;0.30;;;;;;;22.37;100.00;94913.41;5091715;28;20486;-60
2022/06/12 07:22:58;;;;;;;0.40;0.20;;;;;;;22.07;100.00;94858.38;5091487;28;20922;-60
2022/06/12 07:25:27;;;;;;;0.40;0.30;;;;;;;21.97;100.00;94902.09;5091728;28;20428;-60
2022/06/12 07:27:55;;;;;;;0.40;0.20;;;;;;;22.07;100.00;94901.56;5091511;28;20458;-60
2022/06/12 07:30:27;;;;;;;0.40;0.30;;;;;;;21.86;100.00;94893.75;5091594;28;20425;-60
2022/06/12 07:32:56;;;;;;;0.40;0.20;;;;;;;22.02;100.00;94899.13;5091647;28;20448;-60
2022/06/12 07:35:26;;;;;;;0.40;0.30;;;;;;;21.51;100.00;94839.75;5091136;28;20479;-60
2022/06/12 07:37:54;;;;;;;0.40;0.30;;;;;;;21.69;100.00;94831.28;5091204;28;20417;-60
2022/06/12 07:40:30;;;;;;;0.50;0.50;;;;;;;21.76;100.00;94831.44;5091186;28;20471;-60
2022/06/12 07:42:58;;;;;;;0.40;0.30;;;;;;;21.89;100.00;94894.97;5091452;28;20416;-60
2022/06/12 07:45:26;;;;;;;0.50;0.30;;;;;;;21.98;100.00;94888.28;5091109;28;20515;-60
2022/06/12 07:47:55;;;;;;;0.40;0.20;;;;;;;22.17;100.00;94892.91;5091130;28;20416;-60
2022/06/12 07:50:25;;;;;;;0.40;0.30;;;;;;;22.25;100.00;94902.75;5091207;28;20424;-60
2022/06/12 07:52:54;;;;;;;0.50;0.40;;;;;;;21.80;100.00;94800.72;5091111;28;20472;-60
2022/06/12 07:55:22;;;;;;;0.40;0.20;;;;;;;22.65;100.00;94907.84;5091076;28;20555;-60
2022/06/12 07:57:51;;;;;;;0.50;0.40;;;;;;;22.92;100.00;94909.53;5091019;28;20450;-60
2022/06/12 08:00:21;;;;;;;0.40;0.20;;;;;;;22.75;100.00;94910.00;5091016;28;20463;-59
2022/06/12 08:02:50;;;;;;;0.40;0.20;;;;;;;23.06;100.00;94885.50;5091262;28;20428;-60
2022/06/12 08:05:20;;;;;;;0.40;0.20;;;;;;;23.32;100.00;94906.44;5091244;28;20425;-59
2022/06/12 08:07:50;;;;;;;0.40;0.30;;;;;;;23.16;99.95;94903.06;5090903;28;21028;-60
2022/06/12 08:10:19;;;;;;;0.40;0.30;;;;;;;23.41;100.00;94907.00;5090845;28;20479;-60
2022/06/12 08:12:49;;;;;;;0.40;0.30;;;;;;;23.48;100.00;94923.38;5091193;28;20475;-60
2022/06/12 08:15:21;;;;;;;0.40;0.20;;;;;;;23.71;100.00;94915.25;5090857;28;20479;-60
2022/06/12 08:17:50;;;;;;;0.80;0.40;;;;;;;23.56;100.00;94864.75;5090848;28;20957;-59
2022/06/12 08:20:28;;;;;;;0.40;0.30;;;;;;;23.54;100.00;94921.16;5091100;28;20424;-59
2022/06/12 08:23:02;;;;;;;1.20;0.50;;;;;;;23.49;100.00;94913.34;5091201;28;20412;-59
2022/06/12 08:25:35;;;;;;;0.50;0.30;;;;;;;23.45;100.00;94916.00;5091351;28;20577;-60
2022/06/12 08:28:04;;;;;;;0.40;0.30;;;;;;;23.33;100.00;94913.41;5091165;28;20428;-60
2022/06/12 08:30:33;;;;;;;0.47;0.47;;;;;;;22.65;100.00;94816.00;5090694;28;20821;-59
2022/06/12 08:33:01;;;;;;;0.40;0.30;;;;;;;22.90;100.00;94917.25;5090737;28;20482;-59
2022/06/12 08:35:32;;;;;;;0.43;0.30;;;;;;;23.19;100.00;94932.09;5090545;28;20467;-60
2022/06/12 08:38:02;;;;;;;0.40;0.23;;;;;;;23.45;100.00;94926.81;5090776;28;20990;-60
2022/06/12 08:40:36;;;;;;;0.40;0.30;;;;;;;23.33;100.00;94876.34;5094500;28;20485;-60
2022/06/12 08:43:12;;;;;;;0.50;0.40;;;;;;;23.65;100.00;94920.19;5094493;28;20454;-60
2022/06/12 08:45:45;;;;;;;0.40;0.30;;;;;;;23.96;100.00;94922.63;5094903;28;20490;-60
2022/06/12 08:48:24;;;;;;;0.40;0.30;;;;;;;23.98;100.00;94938.53;5094283;28;20442;-60
2022/06/12 08:50:58;;;;;;;0.40;0.30;;;;;;;23.86;100.00;94938.69;5094325;28;20451;-60
2022/06/12 08:53:37;;;;;;;0.30;0.20;;;;;;;23.72;100.00;94939.25;5093981;28;20475;-60
2022/06/12 08:56:11;;;;;;;0.40;0.40;;;;;;;24.11;100.00;94944.56;5094012;28;20529;-59
2022/06/12 08:58:45;;;;;;;0.40;0.40;;;;;;;24.28;100.00;94946.75;5094475;28;20851;-59
2022/06/12 09:01:14;;;;;;;0.40;0.30;;;;;;;24.14;96.07;94935.66;5094081;28;20448;-59
2022/06/12 09:03:49;;;;;;;0.40;0.30;;;;;;;23.80;97.47;94949.06;5094107;28;20424;-59
2022/06/12 09:06:28;;;;;;;0.40;0.30;;;;;;;23.74;94.78;94939.66;5094031;28;20463;-60
2022/06/12 09:09:03;;;;;;;0.50;0.30;;;;;;;23.99;96.80;94943.56;5094335;28;20455;-60
2022/06/12 09:11:37;;;;;;;0.50;0.40;;;;;;;23.86;88.92;94942.19;5093995;28;20428;-61
2022/06/12 09:14:20;;;;;;;0.40;0.30;;;;;;;23.13;100.00;94830.78;5094117;28;20506;-61
2022/06/12 09:17:09;;;;;;;0.70;0.40;;;;;;;23.70;87.65;94938.84;5093955;28;20519;-61
2022/06/12 09:19:42;;;;;;;0.53;0.40;;;;;;;23.74;96.03;94941.59;5094060;28;20424;-61
2022/06/12 09:22:19;;;;;;;3.20;0.40;;;;;;;24.41;100.00;94948.09;5099443;28;20448;-62
2022/06/12 09:24:55;;;;;;;0.40;0.30;;;;;;;24.38;92.04;94954.22;5095883;28;20440;-62
2022/06/12 09:27:31;;;;;;;0.40;0.30;;;;;;;24.39;84.46;94925.97;5093702;28;20881;-63
2022/06/12 09:30:03;;;;;;;0.40;0.30;;;;;;;24.58;90.00;94950.25;5093554;28;20463;-63
2022/06/12 09:32:42;;;;;;;0.47;0.40;;;;;;;24.77;91.15;94952.06;5093829;28;20790;-63
2022/06/12 09:35:19;;;;;;;2.73;0.77;;;;;;;24.88;93.25;94948.38;5093467;28;20491;-64
2022/06/12 09:38:19;;;;;;;0.50;0.30;;;;;;;24.68;89.13;94889.22;5093415;28;20412;-65
2022/06/12 09:41:12;;;;;;;0.40;0.30;;;;;;;24.62;81.33;94938.31;5093706;28;20436;-65
2022/06/12 09:43:53;;;;;;;0.50;0.30;;;;;;;25.20;81.96;94949.50;5093301;28;20433;-66
2022/06/12 09:46:34;;;;;;;0.40;0.30;;;;;;;25.23;76.49;94956.13;5093377;28;20423;-66
2022/06/12 09:49:17;;;;;;;0.40;0.30;;;;;;;25.22;87.39;94954.59;5093259;28;20442;-67
2022/06/12 09:52:01;;;;;;;0.47;0.37;;;;;;;25.27;78.89;94957.72;5093433;28;20701;-67
2022/06/12 09:54:45;;;;;;;0.30;0.20;;;;;;;25.25;75.04;94957.31;5093243;28;20456;-67
2022/06/12 09:57:25;;;;;;;2.10;2.00;;;;;;;24.99;78.25;94957.41;5093465;28;20460;-67
2022/06/12 10:00:00;;;;;;;0.40;0.30;;;;;;;25.49;77.87;94949.84;5093156;28;20412;-67
2022/06/12 10:02:32;;;;;;;0.30;0.20;;;;;;;25.44;75.89;94955.59;5092985;28;20459;-67
2022/06/12 10:05:06;;;;;;;0.40;0.30;;;;;;;25.63;76.09;94949.97;5093318;28;20859;-66
2022/06/12 10:07:43;;;;;;;0.50;0.40;;;;;;;25.41;71.90;94950.91;5092889;28;20428;-67
2022/06/12 10:10:18;;;;;;;0.50;0.30;;;;;;;25.43;71.98;94954.00;5093131;28;20452;-66
2022/06/12 10:12:51;;;;;;;0.50;0.30;;;;;;;25.41;74.92;94943.53;5093196;28;20424;-65
2022/06/12 10:15:24;;;;;;;0.40;0.30;;;;;;;25.63;71.47;94956.19;5092958;28;20551;-65
2022/06/12 10:17:59;;;;;;;0.47;0.47;;;;;;;25.90;73.25;94950.63;5092686;28;20851;-64
2022/06/12 10:20:32;;;;;;;0.30;0.20;;;;;;;25.97;70.15;94954.19;5092704;28;20503;-64
2022/06/12 10:23:01;;;;;;;0.40;0.30;;;;;;;25.95;68.67;94955.72;5092692;28;20425;-64
2022/06/12 10:25:33;;;;;;;0.50;0.30;;;;;;;25.78;71.14;94951.66;5092502;28;20725;-64
2022/06/12 10:28:06;;;;;;;0.40;0.30;;;;;;;25.96;72.62;94958.03;5092669;28;20421;-64
2022/06/12 10:30:40;;;;;;;0.30;0.20;;;;;;;25.61;76.26;94892.56;5092433;28;20428;-65
2022/06/12 10:33:17;;;;;;;0.30;0.20;;;;;;;26.19;72.63;94966.78;5092318;28;20449;-66
2022/06/12 10:35:52;;;;;;;0.30;0.20;;;;;;;25.98;69.11;94958.47;5092376;28;20550;-66
2022/06/12 10:38:22;;;;;;;0.40;0.30;;;;;;;26.01;78.55;94957.69;5092444;28;20424;-67
2022/06/12 10:40:53;;;;;;;0.30;0.30;;;;;;;25.71;68.76;94960.53;5092343;28;20463;-67
2022/06/12 10:43:31;;;;;;;0.30;0.20;;;;;;;25.95;72.31;94948.34;5092486;28;20782;-68
2022/06/12 10:46:04;;;;;;;0.50;0.40;;;;;;;26.23;78.47;94958.69;5092518;28;20451;-67
2022/06/12 10:48:35;;;;;;;0.30;0.30;;;;;;;25.92;77.36;94951.03;5092646;28;20424;-68
2022/06/12 10:51:22;;;;;;;0.40;0.30;;;;;;;25.86;75.92;94961.44;5092204;28;20420;-68
2022/06/12 10:53:58;;;;;;;0.40;0.30;;;;;;;25.82;79.33;94974.22;5092258;28;20444;-68
2022/06/12 10:56:36;;;;;;;0.40;0.30;;;;;;;25.51;80.29;94964.59;5092149;28;20999;-68
2022/06/12 10:59:33;;;;;;;0.30;0.20;;;;;;;25.72;96.92;94970.25;5092206;28;20885;-68
2022/06/12 11:02:34;;;;;;;0.50;0.40;;;;;;;25.41;91.55;94938.13;5091418;28;20474;-67
2022/06/12 11:05:35;;;;;;;0.40;0.30;;;;;;;25.70;87.07;94944.63;5091936;28;20432;-67
2022/06/12 11:08:16;;;;;;;0.40;0.20;;;;;;;25.84;87.37;94971.91;5065172;28;20470;-67
2022/06/12 11:10:54;;;;;;;0.30;0.20;;;;;;;24.64;85.92;94965.06;5091857;28;20916;-66
2022/06/12 11:13:44;;;;;;;0.40;0.30;;;;;;;24.61;87.23;94976.63;5091719;28;20515;-66
2022/06/12 11:16:27;;;;;;;0.37;0.23;;;;;;;23.96;90.73;94906.38;5091568;28;20563;-65
2022/06/12 11:19:11;;;;;;;0.50;0.40;;;;;;;24.76;97.90;94974.88;5091640;28;20420;-65
2022/06/12 11:21:53;;;;;;;0.57;0.57;;;;;;;21.77;93.78;94619.91;5091505;28;20985;-65
2022/06/12 11:24:35;;;;;;;0.40;0.40;;;;;;;24.24;100.00;94978.38;5091823;28;20428;-64
2022/06/12 11:27:24;;;;;;;0.40;0.30;;;;;;;23.15;100.00;94844.72;5091522;28;20452;-63
2022/06/12 11:30:11;;;;;;;0.30;0.20;;;;;;;23.87;100.00;94968.13;5091793;28;20433;-63
2022/06/12 11:33:14;;;;;;;0.40;0.40;;;;;;;23.90;100.00;94944.97;5091570;28;20452;-63
2022/06/12 11:35:51;;;;;;;0.40;0.30;;;;;;;23.91;100.00;94987.91;5092359;28;20499;-62
2022/06/12 11:38:34;;;;;;;0.40;0.30;;;;;;;23.72;100.00;95004.19;5096366;28;20511;-64
2022/06/12 11:41:11;;;;;;;0.40;0.30;;;;;;;23.56;100.00;94976.47;5092839;28;20499;-63
2022/06/12 11:43:43;;;;;;;0.40;0.30;;;;;;;23.85;100.00;94993.97;5091244;28;20936;-63
2022/06/12 11:46:21;;;;;;;0.50;0.37;;;;;;;23.44;100.00;94994.78;5091638;28;20481;-64
2022/06/12 11:49:05;;;;;;;0.40;0.40;;;;;;;23.44;100.00;95003.69;5091075;28;20462;-64
2022/06/12 11:51:48;;;;;;;0.40;0.40;;;;;;;22.25;100.00;94874.97;5091029;28;20471;-63
2022/06/12 11:54:32;;;;;;;0.40;0.30;;;;;;;23.38;100.00;94982.69;5091259;28;20924;-61
2022/06/12 11:57:10;;;;;;;0.40;0.30;;;;;;;23.79;100.00;95001.63;5091201;28;20518;-61
2022/06/12 11:59:49;;;;;;;0.50;0.50;;;;;;;23.60;100.00;95011.72;5091280;28;20651;-61
2022/06/12 12:02:30;;;;;;;0.40;0.40;;;;;;;23.32;100.00;95001.91;5091116;28;20971;-60
2022/06/12 12:05:27;;;;;;;2.63;0.30;;;;;;;23.11;100.00;95003.38;5091431;28;20464;-60
2022/06/12 12:08:07;;;;;;;0.60;0.43;;;;;;;22.85;100.00;95001.28;5091006;28;20481;-60
2022/06/12 12:10:47;;;;;;;0.40;0.30;;;;;;;21.47;100.00;94797.66;5090848;28;20425;-60
2022/06/12 12:13:19;;;;;;;0.50;0.50;;;;;;;22.41;100.00;94968.31;5090997;28;20427;-61
2022/06/12 12:15:50;;;;;;;0.60;0.57;;;;;;;23.01;100.00;95004.72;5094914;28;20456;-60
2022/06/12 12:18:32;;;;;;;0.40;0.30;;;;;;;22.86;100.00;94997.47;5095186;28;20448;-62